Time;durP1;ratioP1;P1;durP2;ratioP2;P2;SDS_P1;SDS_P2;PMS_P1;PMS_P2;Temp;Humidity;BMP_temperature;BMP_pressure;BME280_temperature;BME280_humidity;BME280_pressure;Samples;Min_cycle;Max_cycle;Signal;HPM_P1;HPM_P2
2021/06/17 00:00:15;;;;;;;8.73;7.20;;;;;;;22.66;62.69;100038.84;5020731;28;20342;-57
2021/06/17 00:02:42;;;;;;;8.25;6.72;;;;;;;22.63;62.92;100036.44;5019067;28;20054;-56
2021/06/17 00:05:11;;;;;;;9.93;7.45;;;;;;;22.60;63.18;100044.84;5010302;28;20037;-58
2021/06/17 00:07:38;;;;;;;8.57;7.10;;;;;;;22.56;63.03;100043.47;5016084;28;20060;-61
2021/06/17 00:10:18;;;;;;;7.88;7.10;;;;;;;22.52;63.40;100035.84;5018252;28;20052;-58
2021/06/17 00:12:45;;;;;;;8.95;7.28;;;;;;;22.51;63.54;100031.47;5014982;28;20053;-57
2021/06/17 00:15:13;;;;;;;9.55;7.53;;;;;;;22.43;63.87;100034.94;5007575;28;20050;-59
2021/06/17 00:17:42;;;;;;;10.25;7.15;;;;;;;22.42;63.74;100043.19;5015151;28;20416;-61
2021/06/17 00:20:10;;;;;;;7.90;7.07;;;;;;;22.40;64.13;100040.63;5017381;28;20064;-59
2021/06/17 00:22:36;;;;;;;8.43;7.45;;;;;;;22.36;64.27;100039.25;5019454;28;20450;-57
2021/06/17 00:25:04;;;;;;;7.57;6.85;;;;;;;22.31;64.35;100034.34;4995994;28;20053;-57
2021/06/17 00:27:31;;;;;;;7.55;6.85;;;;;;;22.30;64.49;100038.03;5015044;28;20531;-59
2021/06/17 00:29:57;;;;;;;8.55;7.38;;;;;;;22.30;64.49;100037.19;5016098;28;20057;-57
2021/06/17 00:32:24;;;;;;;12.20;7.63;;;;;;;22.28;64.40;100031.94;5013645;28;20049;-58
2021/06/17 00:34:50;;;;;;;9.00;7.80;;;;;;;22.24;64.86;100040.50;5020314;28;20045;-59
2021/06/17 00:37:17;;;;;;;9.05;7.43;;;;;;;22.22;65.08;100034.41;5013089;28;21480;-57
2021/06/17 00:39:43;;;;;;;8.65;7.20;;;;;;;22.18;64.92;100031.19;5017614;28;20416;-58
2021/06/17 00:42:10;;;;;;;12.07;7.85;;;;;;;22.14;65.07;100034.34;5016541;28;20064;-58
2021/06/17 00:44:37;;;;;;;8.68;7.18;;;;;;;22.08;65.37;100033.13;5014434;28;20090;-58
2021/06/17 00:47:04;;;;;;;8.45;7.28;;;;;;;22.03;65.56;100030.91;5014519;28;20055;-58
2021/06/17 00:49:34;;;;;;;8.13;7.43;;;;;;;21.99;66.02;100028.63;5014886;28;20511;-61
2021/06/17 00:52:03;;;;;;;9.70;7.82;;;;;;;21.95;66.07;100035.31;5015983;28;20041;-61
2021/06/17 00:54:32;;;;;;;9.85;8.20;;;;;;;21.90;66.44;100041.16;5010002;28;20064;-58
2021/06/17 00:57:00;;;;;;;11.88;8.38;;;;;;;21.91;66.43;100037.47;5018735;28;20045;-58
2021/06/17 00:59:27;;;;;;;9.55;7.68;;;;;;;21.88;66.79;100034.25;5013099;28;20570;-60
2021/06/17 01:01:54;;;;;;;9.00;8.20;;;;;;;21.82;67.36;100041.09;5014986;28;20048;-54
2021/06/17 01:04:22;;;;;;;10.38;8.45;;;;;;;21.77;67.60;100032.59;5013394;28;20468;-57
2021/06/17 01:06:51;;;;;;;9.45;8.50;;;;;;;21.78;67.84;100036.16;5012285;28;20053;-57
2021/06/17 01:09:27;;;;;;;8.95;7.95;;;;;;;21.77;68.16;100029.06;5014791;28;20121;-57
2021/06/17 01:12:03;;;;;;;9.10;8.20;;;;;;;21.76;68.32;100030.06;5011163;28;21022;-56
2021/06/17 01:14:41;;;;;;;9.48;8.25;;;;;;;21.75;68.29;100028.38;5007236;28;20045;-58
2021/06/17 01:17:11;;;;;;;9.15;8.18;;;;;;;21.70;68.30;100015.38;5013345;28;20060;-60
2021/06/17 01:19:56;;;;;;;9.15;8.23;;;;;;;21.64;68.20;100016.81;5007593;28;20153;-61
2021/06/17 01:22:49;;;;;;;9.77;8.85;;;;;;;21.63;68.33;100008.88;5011218;28;20041;-62
2021/06/17 01:25:34;;;;;;;10.00;8.48;;;;;;;21.59;68.82;100005.63;5014541;28;21243;-61
2021/06/17 01:28:16;;;;;;;10.40;7.75;;;;;;;21.58;68.81;100012.00;4997244;28;20056;-55
2021/06/17 01:30:48;;;;;;;9.20;8.30;;;;;;;21.55;68.42;99998.88;5018974;28;20425;-59
2021/06/17 01:33:16;;;;;;;11.30;8.95;;;;;;;21.54;68.60;100001.72;5015254;28;20123;-59
2021/06/17 01:35:47;;;;;;;9.45;8.02;;;;;;;21.52;68.54;100001.00;5018440;28;20492;-58
2021/06/17 01:38:18;;;;;;;10.23;8.13;;;;;;;21.49;68.83;99991.38;5010201;28;20072;-55
2021/06/17 01:40:47;;;;;;;9.50;8.45;;;;;;;21.50;68.51;99992.22;5015603;28;20079;-60
2021/06/17 01:43:16;;;;;;;9.05;7.93;;;;;;;21.45;68.59;99995.38;5008793;28;20057;-57
2021/06/17 01:45:45;;;;;;;10.45;8.82;;;;;;;21.39;68.83;99989.75;5013016;28;20073;-57
2021/06/17 01:48:12;;;;;;;13.18;8.50;;;;;;;21.37;68.89;99991.75;5011548;28;20057;-57
2021/06/17 01:50:43;;;;;;;9.48;8.23;;;;;;;21.37;68.97;99987.22;5015108;28;20054;-61
2021/06/17 01:53:10;;;;;;;;;;;;;;;21.38;68.91;99988.06;5014249;28;20045;-62
2021/06/17 01:55:39;;;;;;;9.70;8.20;;;;;;;21.41;68.89;99995.84;4994827;28;20051;-57
2021/06/17 01:58:08;;;;;;;8.75;7.80;;;;;;;21.42;68.40;99992.13;5009484;28;20132;-60
2021/06/17 02:00:36;;;;;;;11.63;7.85;;;;;;;21.43;67.75;99993.81;5016594;28;20175;-57
2021/06/17 02:03:06;;;;;;;9.70;8.18;;;;;;;21.41;68.07;100001.25;5011491;28;20053;-58
2021/06/17 02:05:34;;;;;;;9.17;7.80;;;;;;;21.38;68.13;99988.91;5017555;28;20059;-58
2021/06/17 02:08:03;;;;;;;8.82;7.82;;;;;;;21.36;68.15;99990.91;5020470;28;20049;-59
2021/06/17 02:10:31;;;;;;;10.10;7.82;;;;;;;21.33;67.92;99992.06;4992239;28;20527;-60
2021/06/17 02:12:59;;;;;;;11.13;7.60;;;;;;;21.32;68.31;99994.88;5020060;28;20052;-59
2021/06/17 02:15:28;;;;;;;9.43;8.43;;;;;;;21.31;67.97;99996.72;5011856;28;20037;-56
2021/06/17 02:17:56;;;;;;;8.82;7.90;;;;;;;21.29;67.95;99989.78;5028288;28;20058;-59
2021/06/17 02:20:23;;;;;;;8.80;8.00;;;;;;;21.27;68.30;99987.25;5021391;28;20057;-58
2021/06/17 02:22:55;;;;;;;9.20;8.30;;;;;;;21.26;68.07;100004.41;5009728;28;20127;-60
2021/06/17 02:25:23;;;;;;;8.98;8.18;;;;;;;21.23;68.35;99988.56;5016559;28;20053;-55
2021/06/17 02:27:57;;;;;;;8.40;7.60;;;;;;;21.21;68.34;100000.47;5013744;28;20057;-58
2021/06/17 02:30:27;;;;;;;9.35;7.20;;;;;;;21.20;68.61;100005.03;5019526;28;20053;-61
2021/06/17 02:32:55;;;;;;;10.07;7.95;;;;;;;21.20;68.64;99996.94;5008998;28;20061;-59
2021/06/17 02:35:25;;;;;;;9.82;7.80;;;;;;;21.17;68.42;100001.75;5013545;28;20053;-60
2021/06/17 02:38:01;;;;;;;8.65;7.78;;;;;;;21.15;68.73;99996.50;5017652;28;20053;-59
2021/06/17 02:40:30;;;;;;;9.13;8.18;;;;;;;21.13;68.59;100001.19;5014942;28;20408;-60
2021/06/17 02:43:08;;;;;;;9.10;8.23;;;;;;;21.13;68.97;99995.78;5009079;28;20127;-60
2021/06/17 02:45:35;;;;;;;8.68;7.88;;;;;;;21.12;68.58;99999.47;5014747;28;20045;-60
2021/06/17 02:48:03;;;;;;;10.50;8.00;;;;;;;21.10;68.08;99996.09;5007075;28;20053;-57
2021/06/17 02:50:29;;;;;;;8.40;7.55;;;;;;;21.10;68.08;100006.00;5016453;28;20045;-56
2021/06/17 02:52:56;;;;;;;9.48;7.55;;;;;;;21.09;67.93;100007.88;4991232;28;20045;-58
2021/06/17 02:55:22;;;;;;;8.07;7.25;;;;;;;21.09;68.12;100005.19;5012253;28;20290;-61
2021/06/17 02:58:02;;;;;;;9.57;8.40;;;;;;;21.10;67.68;100017.63;5004958;28;20694;-61
2021/06/17 03:00:33;;;;;;;10.27;8.32;;;;;;;21.08;67.74;100013.41;5012479;28;20053;-60
2021/06/17 03:03:13;;;;;;;8.60;7.63;;;;;;;21.05;68.01;100017.25;5013432;28;20733;-62
2021/06/17 03:05:49;;;;;;;8.20;7.38;;;;;;;21.01;68.03;100014.00;5012475;28;20547;-58
2021/06/17 03:08:24;;;;;;;8.80;7.90;;;;;;;21.02;68.04;100020.22;5014993;28;20058;-55
2021/06/17 03:10:52;;;;;;;8.93;7.93;;;;;;;21.03;68.16;100021.94;5026203;28;20053;-58
2021/06/17 03:13:23;;;;;;;8.50;7.60;;;;;;;21.05;68.19;100014.56;5014453;28;20063;-57
2021/06/17 03:15:51;;;;;;;8.75;7.85;;;;;;;21.09;67.76;100017.81;5004308;28;20041;-57
2021/06/17 03:18:19;;;;;;;9.55;7.55;;;;;;;21.11;67.47;100007.72;4997692;28;20064;-60
2021/06/17 03:20:48;;;;;;;9.00;7.97;;;;;;;21.10;67.57;100003.31;5016059;28;20049;-59
2021/06/17 03:23:17;;;;;;;8.77;7.80;;;;;;;21.13;67.84;100009.25;5018799;28;20087;-57
2021/06/17 03:25:49;;;;;;;8.98;7.82;;;;;;;21.10;67.71;100012.25;5007383;28;20041;-58
2021/06/17 03:28:17;;;;;;;9.25;7.82;;;;;;;21.07;67.70;100009.88;5015619;28;20060;-58
2021/06/17 03:30:47;;;;;;;9.05;7.85;;;;;;;21.06;67.60;100010.03;5014095;28;20073;-58
2021/06/17 03:33:17;;;;;;;8.95;8.05;;;;;;;21.03;67.78;99995.00;4995965;28;20045;-58
2021/06/17 03:35:46;;;;;;;8.82;7.93;;;;;;;21.02;68.05;99999.53;5016103;28;20754;-61
2021/06/17 03:38:14;;;;;;;8.00;7.22;;;;;;;21.04;68.30;100004.78;5016031;28;20049;-58
2021/06/17 03:40:43;;;;;;;8.93;8.02;;;;;;;21.09;68.26;99998.97;5012940;28;20049;-58
2021/06/17 03:43:11;;;;;;;10.07;7.88;;;;;;;21.13;67.91;100000.34;5015549;28;20061;-61
2021/06/17 03:45:40;;;;;;;8.73;7.40;;;;;;;21.16;68.04;100008.97;5021087;28;20052;-58
2021/06/17 03:48:08;;;;;;;8.57;7.68;;;;;;;21.21;67.78;100009.41;5013599;28;20038;-56
2021/06/17 03:50:35;;;;;;;9.60;7.40;;;;;;;21.24;67.23;100019.88;5011501;28;20060;-60
2021/06/17 03:53:02;;;;;;;8.13;7.32;;;;;;;21.27;67.20;100024.09;5017976;28;20049;-58
2021/06/17 03:55:33;;;;;;;8.07;7.25;;;;;;;21.28;67.38;100031.19;5014638;28;20117;-55
2021/06/17 03:58:00;;;;;;;9.45;7.88;;;;;;;21.26;67.31;100030.47;5008196;28;20045;-58
2021/06/17 04:00:30;;;;;;;8.63;7.80;;;;;;;21.27;67.26;100027.66;5016621;28;20045;-59
2021/06/17 04:03:05;;;;;;;8.80;7.95;;;;;;;21.26;67.53;100027.78;5019898;28;20056;-59
2021/06/17 04:05:32;;;;;;;9.00;7.50;;;;;;;21.24;67.41;100024.44;5013886;28;20137;-61
2021/06/17 04:08:01;;;;;;;9.25;8.35;;;;;;;21.21;68.10;100022.03;5016404;28;20061;-63
2021/06/17 04:10:29;;;;;;;11.55;7.93;;;;;;;21.21;68.36;100025.56;5022333;28;20055;-58
2021/06/17 04:12:58;;;;;;;9.07;7.63;;;;;;;21.21;68.42;100024.72;5021288;28;20435;-61
2021/06/17 04:15:26;;;;;;;8.82;7.82;;;;;;;21.23;68.45;100020.03;5017540;28;20053;-56
2021/06/17 04:17:56;;;;;;;8.30;7.50;;;;;;;21.25;68.82;100024.25;5011190;28;20076;-57
2021/06/17 04:20:33;;;;;;;13.00;8.07;;;;;;;21.25;68.44;100018.88;5014151;28;20045;-59
2021/06/17 04:23:04;;;;;;;11.13;8.27;;;;;;;21.29;68.00;100032.88;5019412;28;20057;-63
2021/06/17 04:25:30;;;;;;;;;;;;;;;21.29;67.45;100041.81;5020823;28;20075;-58
2021/06/17 04:28:00;;;;;;;12.02;8.35;;;;;;;21.31;68.11;100031.75;5016012;28;20124;-58
2021/06/17 04:30:28;;;;;;;;;;;;;;;21.35;68.64;100038.53;5019535;28;20045;-60
2021/06/17 04:32:56;;;;;;;9.88;7.82;;;;;;;21.38;68.39;100055.41;5015091;28;19921;-62
2021/06/17 04:35:25;;;;;;;8.50;7.60;;;;;;;21.37;67.59;100048.31;5018329;28;20188;-58
2021/06/17 04:37:52;;;;;;;9.00;8.10;;;;;;;21.35;67.67;100053.84;5015104;28;20055;-65
2021/06/17 04:40:21;;;;;;;9.18;8.15;;;;;;;21.33;67.78;100054.00;5018153;28;20104;-59
2021/06/17 04:42:49;;;;;;;9.10;8.13;;;;;;;21.33;68.40;100056.69;5011261;28;20053;-62
2021/06/17 04:45:17;;;;;;;10.45;8.35;;;;;;;21.36;68.45;100069.00;5020997;28;20408;-64
2021/06/17 04:47:49;;;;;;;9.38;8.48;;;;;;;21.39;68.91;100068.72;5015334;28;20068;-60
2021/06/17 04:50:17;;;;;;;9.65;8.23;;;;;;;21.42;68.40;100070.25;5016510;28;20056;-60
2021/06/17 04:52:50;;;;;;;12.23;8.70;;;;;;;21.43;69.34;100072.78;5019882;28;20053;-58
2021/06/17 04:55:20;;;;;;;10.40;8.25;;;;;;;21.48;69.09;100064.28;5014413;28;20053;-57
2021/06/17 04:57:48;;;;;;;9.40;8.40;;;;;;;21.55;69.33;100057.31;5020943;28;20719;-58
2021/06/17 05:00:15;;;;;;;10.15;8.35;;;;;;;21.59;69.47;100067.59;5019387;28;20128;-57
2021/06/17 05:02:42;;;;;;;14.20;8.35;;;;;;;21.63;69.31;100073.53;5013332;28;20061;-57
2021/06/17 05:05:09;;;;;;;9.77;8.77;;;;;;;21.63;68.15;100066.31;5013307;28;20042;-59
2021/06/17 05:12:50;;;;;;;15.82;8.32;;;;;;;21.68;67.68;100052.41;5020387;28;20495;-57
2021/06/17 05:15:16;;;;;;;8.77;7.75;;;;;;;21.75;67.95;100050.78;5007854;28;20049;-57
2021/06/17 05:17:43;;;;;;;9.50;7.97;;;;;;;21.87;67.40;100048.72;5015283;28;20073;-60
2021/06/17 05:20:10;;;;;;;13.65;7.75;;;;;;;21.98;67.45;100043.97;5009580;28;20060;-60
2021/06/17 05:22:37;;;;;;;10.65;7.63;;;;;;;22.09;67.70;100044.75;5012160;28;20056;-58
2021/06/17 05:25:04;;;;;;;10.32;8.52;;;;;;;22.19;67.28;100048.22;5016195;28;20059;-57
2021/06/17 05:27:31;;;;;;;8.95;7.60;;;;;;;22.26;66.57;100050.13;5004529;28;20056;-58
2021/06/17 05:29:57;;;;;;;9.65;7.50;;;;;;;22.39;65.44;100061.38;5020374;28;20050;-62
2021/06/17 05:32:25;;;;;;;8.98;7.10;;;;;;;22.52;64.18;100060.13;5016684;28;20057;-59
2021/06/17 05:34:51;;;;;;;11.15;6.65;;;;;;;22.66;63.21;100052.34;5018946;28;20711;-59
2021/06/17 05:37:18;;;;;;;8.55;6.72;;;;;;;22.83;62.09;100052.44;5021849;28;20061;-63
2021/06/17 05:39:44;;;;;;;9.02;6.90;;;;;;;22.93;60.61;100047.81;5013051;28;20069;-58
2021/06/17 05:42:11;;;;;;;9.57;6.72;;;;;;;23.08;58.83;100048.91;5019291;28;20041;-59
2021/06/17 05:44:37;;;;;;;11.15;6.80;;;;;;;23.21;57.81;100043.91;5016575;28;20507;-58
2021/06/17 05:47:04;;;;;;;13.32;6.65;;;;;;;23.33;56.14;100045.31;5022368;28;20050;-58
2021/06/17 05:49:30;;;;;;;8.52;6.90;;;;;;;23.45;56.04;100049.41;5026979;28;20469;-59
2021/06/17 05:51:57;;;;;;;10.88;6.70;;;;;;;23.56;55.64;100055.56;5013468;28;20049;-58
2021/06/17 05:54:24;;;;;;;8.48;6.25;;;;;;;23.67;55.16;100045.28;5020172;28;20099;-62
2021/06/17 05:56:50;;;;;;;9.48;6.60;;;;;;;23.85;54.99;100047.88;5018991;28;20415;-60
2021/06/17 05:59:18;;;;;;;10.85;6.30;;;;;;;23.98;54.11;100052.81;5022345;28;20053;-63
2021/06/17 06:01:44;;;;;;;7.82;6.50;;;;;;;24.16;53.70;100058.06;5021652;28;20049;-60
2021/06/17 06:04:11;;;;;;;9.60;6.10;;;;;;;24.40;54.40;100066.22;5017042;28;20049;-60
2021/06/17 06:06:37;;;;;;;8.05;6.38;;;;;;;24.67;51.92;100074.03;5015814;28;20049;-57
2021/06/17 06:09:04;;;;;;;14.10;6.72;;;;;;;26.08;49.31;100061.53;5023664;28;20068;-59
2021/06/17 06:11:30;;;;;;;11.30;6.65;;;;;;;28.54;42.60;100063.00;5018522;28;20278;-61
2021/06/17 06:13:57;;;;;;;12.20;6.47;;;;;;;30.43;38.08;100057.06;5017262;28;20045;-59
2021/06/17 06:16:23;;;;;;;7.95;5.70;;;;;;;31.96;35.51;100064.81;5018808;28;20049;-60
2021/06/17 06:18:50;;;;;;;8.05;5.82;;;;;;;33.45;32.45;100064.91;5012582;28;20049;-62
2021/06/17 06:21:17;;;;;;;6.20;5.60;;;;;;;34.36;30.25;100067.53;5024864;28;20049;-61
2021/06/17 06:23:43;;;;;;;6.43;5.00;;;;;;;34.94;29.05;100083.34;5015719;28;21289;-64
2021/06/17 06:26:10;;;;;;;7.85;4.93;;;;;;;35.44;28.79;100072.66;5011456;28;20468;-60
2021/06/17 06:28:36;;;;;;;5.38;4.78;;;;;;;36.38;27.15;100075.13;5017873;28;21856;-60
2021/06/17 06:31:03;;;;;;;5.82;5.00;;;;;;;36.37;26.27;100079.81;5020960;28;20049;-63
2021/06/17 06:33:29;;;;;;;8.63;5.10;;;;;;;36.09;26.63;100077.03;5010104;28;20053;-61
2021/06/17 06:35:56;;;;;;;6.22;4.82;;;;;;;36.60;26.54;100089.03;5016395;28;20059;-63
2021/06/17 06:38:23;;;;;;;8.27;5.10;;;;;;;36.76;26.42;100088.25;5014601;28;20061;-60
2021/06/17 06:40:49;;;;;;;8.55;4.85;;;;;;;37.45;26.27;100097.91;5027941;28;20060;-60
2021/06/17 06:43:17;;;;;;;6.53;4.85;;;;;;;38.18;25.79;100093.03;5023358;28;20056;-61
2021/06/17 06:45:43;;;;;;;9.10;4.90;;;;;;;38.15;24.59;100093.53;5017431;28;20136;-61
2021/06/17 06:48:10;;;;;;;6.45;4.60;;;;;;;37.61;24.38;100101.69;5017449;28;20054;-60
2021/06/17 06:50:37;;;;;;;5.20;4.35;;;;;;;37.26;25.42;100095.69;5013892;28;20054;-62
2021/06/17 06:53:04;;;;;;;8.07;4.95;;;;;;;37.52;25.10;100095.75;5014490;28;20055;-62
2021/06/17 06:55:30;;;;;;;7.10;5.07;;;;;;;37.29;25.18;100097.94;5027529;28;20041;-60
2021/06/17 06:57:57;;;;;;;8.45;4.82;;;;;;;37.40;25.11;100105.25;5020321;28;20050;-60
2021/06/17 07:00:23;;;;;;;6.57;4.50;;;;;;;37.36;25.11;100096.66;5022954;28;20669;-63
2021/06/17 07:02:50;;;;;;;5.95;4.88;;;;;;;37.44;25.00;100098.16;5012352;28;20053;-63
2021/06/17 07:05:17;;;;;;;7.80;4.63;;;;;;;37.54;25.31;100095.50;5002767;28;20057;-67
2021/06/17 07:07:43;;;;;;;6.10;5.30;;;;;;;37.77;24.58;100087.00;5003971;28;20141;-65
2021/06/17 07:10:11;;;;;;;5.85;4.88;;;;;;;37.55;25.23;100095.25;5005073;28;20089;-60
2021/06/17 07:12:39;;;;;;;8.10;5.43;;;;;;;36.99;25.16;100090.84;5011979;28;20050;-63
2021/06/17 07:15:07;;;;;;;8.48;4.75;;;;;;;36.92;25.13;100095.69;5006597;28;20126;-61
2021/06/17 07:17:33;;;;;;;6.60;4.82;;;;;;;37.03;25.33;100099.44;5012340;28;20480;-61
2021/06/17 07:20:00;;;;;;;9.15;4.85;;;;;;;36.74;24.77;100102.28;5020716;28;20045;-63
2021/06/17 07:22:27;;;;;;;5.80;4.80;;;;;;;36.78;26.04;100097.94;5014518;28;20867;-60
2021/06/17 07:24:53;;;;;;;8.18;5.13;;;;;;;36.64;25.81;100095.75;5017944;28;20072;-62
2021/06/17 07:27:21;;;;;;;8.70;4.75;;;;;;;36.73;26.28;100094.25;5013354;28;20389;-59
2021/06/17 07:29:49;;;;;;;9.05;4.68;;;;;;;36.81;25.21;100091.94;5014759;28;20072;-60
2021/06/17 07:32:15;;;;;;;6.22;4.40;;;;;;;36.64;25.31;100084.69;5016514;28;20421;-57
2021/06/17 07:34:44;;;;;;;8.77;4.80;;;;;;;36.54;26.94;100082.59;5008762;28;20054;-61
2021/06/17 07:37:11;;;;;;;13.65;4.88;;;;;;;35.74;27.68;100075.22;5010005;28;20565;-63
2021/06/17 07:39:37;;;;;;;7.30;4.90;;;;;;;34.83;28.10;100079.50;5014658;28;20045;-60
2021/06/17 07:42:04;;;;;;;9.88;4.65;;;;;;;34.59;28.63;100072.25;5013199;28;20053;-63
2021/06/17 07:44:31;;;;;;;11.02;4.30;;;;;;;34.97;27.54;100071.84;5011563;28;20050;-60
2021/06/17 07:46:59;;;;;;;6.30;4.47;;;;;;;35.63;27.35;100072.50;5017610;28;20053;-60
2021/06/17 07:49:25;;;;;;;6.35;4.30;;;;;;;36.19;25.65;100074.50;5014478;28;20065;-63
2021/06/17 07:51:52;;;;;;;12.38;4.50;;;;;;;35.63;26.56;100067.00;5016701;28;20048;-61
2021/06/17 07:54:18;;;;;;;10.15;4.88;;;;;;;35.93;25.52;100069.56;5009381;28;20049;-64
2021/06/17 07:56:48;;;;;;;7.15;4.25;;;;;;;36.05;25.52;100073.09;5036139;28;20081;-62
2021/06/17 07:59:18;;;;;;;9.18;4.40;;;;;;;36.04;25.42;100063.19;5010358;28;20080;-62
2021/06/17 08:01:46;;;;;;;6.88;4.03;;;;;;;35.95;25.64;100075.66;5011935;28;20053;-61
2021/06/17 08:04:12;;;;;;;9.07;4.50;;;;;;;35.86;25.52;100086.25;5017391;28;21123;-59
2021/06/17 08:06:39;;;;;;;7.03;4.07;;;;;;;35.92;25.48;100074.25;5018552;28;20069;-63
2021/06/17 08:09:05;;;;;;;6.35;4.32;;;;;;;35.99;25.81;100063.09;5023850;28;20052;-60
2021/06/17 08:11:32;;;;;;;6.60;4.32;;;;;;;36.08;26.06;100067.94;5025398;28;20057;-59
2021/06/17 08:14:21;;;;;;;6.68;4.40;;;;;;;35.95;25.68;100072.91;5027519;28;20057;-56
2021/06/17 08:16:48;;;;;;;6.88;4.88;;;;;;;35.64;25.63;100074.19;5019506;28;20658;-62
2021/06/17 08:19:15;;;;;;;8.43;4.57;;;;;;;35.39;26.41;100078.09;5007653;28;20709;-59
2021/06/17 08:21:43;;;;;;;7.35;4.88;;;;;;;35.18;26.79;100075.91;5014145;28;20173;-60
2021/06/17 08:24:10;;;;;;;9.30;5.00;;;;;;;34.78;27.70;100068.38;5021343;28;20045;-61
2021/06/17 08:26:37;;;;;;;7.10;4.90;;;;;;;34.08;28.03;100076.38;5023691;28;20485;-60
2021/06/17 08:29:04;;;;;;;8.43;4.95;;;;;;;33.29;30.14;100076.50;5030040;28;20057;-59
2021/06/17 08:31:30;;;;;;;16.63;5.85;;;;;;;32.88;31.51;100088.91;5013406;28;20065;-62
2021/06/17 08:33:57;;;;;;;5.55;4.30;;;;;;;32.68;31.43;100099.16;5027023;28;20581;-57
2021/06/17 08:36:23;;;;;;;10.40;4.55;;;;;;;32.53;31.75;100099.50;5023309;28;20055;-58
2021/06/17 08:38:50;;;;;;;7.13;4.72;;;;;;;32.41;32.00;100107.59;5032528;28;20425;-57
2021/06/17 08:41:17;;;;;;;7.88;5.03;;;;;;;32.13;31.87;100109.81;5033198;28;20072;-60
2021/06/17 08:43:50;;;;;;;8.52;4.80;;;;;;;32.00;32.20;100112.63;5027068;28;20056;-57
2021/06/17 08:46:16;;;;;;;9.55;4.85;;;;;;;32.04;34.00;100108.41;5025024;28;20045;-59
2021/06/17 08:48:48;;;;;;;7.50;5.40;;;;;;;32.04;36.15;100113.88;5027491;28;20531;-60
2021/06/17 08:51:16;;;;;;;7.80;5.18;;;;;;;31.97;36.37;100107.56;5023927;28;20049;-58
2021/06/17 08:53:43;;;;;;;8.63;5.78;;;;;;;31.88;36.50;100111.63;5024134;28;20412;-60
2021/06/17 08:56:09;;;;;;;10.07;5.32;;;;;;;31.81;37.45;100105.34;5026486;28;20077;-60
2021/06/17 08:58:36;;;;;;;7.82;6.00;;;;;;;31.72;37.48;100097.38;5027176;28;20057;-59
2021/06/17 09:01:10;;;;;;;9.70;5.55;;;;;;;31.57;37.32;100093.19;5026207;28;20053;-59
2021/06/17 09:03:39;;;;;;;9.55;6.00;;;;;;;31.45;37.29;100095.75;5023370;28;20045;-59
2021/06/17 09:06:07;;;;;;;6.30;5.60;;;;;;;31.40;37.64;100098.28;5018343;28;20092;-62
2021/06/17 09:08:34;;;;;;;6.45;5.20;;;;;;;31.37;37.90;100098.72;5023589;28;20063;-60
2021/06/17 09:11:03;;;;;;;10.13;5.80;;;;;;;31.33;37.76;100086.50;5024541;28;20053;-58
2021/06/17 09:13:34;;;;;;;11.75;5.57;;;;;;;31.32;37.62;100076.66;5028303;28;20050;-58
2021/06/17 09:16:02;;;;;;;9.05;5.20;;;;;;;31.25;37.89;100084.84;5020985;28;20045;-58
2021/06/17 09:18:34;;;;;;;8.85;5.30;;;;;;;31.18;36.76;100088.66;5030647;28;20176;-61
2021/06/17 09:21:06;;;;;;;7.28;5.35;;;;;;;31.09;38.02;100089.91;5026561;28;20097;-59
2021/06/17 09:23:49;;;;;;;8.20;5.10;;;;;;;31.03;36.22;100094.31;5025008;28;20090;-58
2021/06/17 09:26:23;;;;;;;6.25;5.07;;;;;;;31.04;36.50;100088.63;5023506;28;20064;-60
2021/06/17 09:29:09;;;;;;;5.90;5.05;;;;;;;31.04;36.07;100088.63;5033049;28;20054;-59
2021/06/17 09:31:40;;;;;;;10.40;4.57;;;;;;;31.11;33.68;100090.56;5020988;28;20080;-58
2021/06/17 09:34:10;;;;;;;8.23;5.03;;;;;;;31.04;33.61;100085.91;5019778;28;20157;-57
2021/06/17 09:36:39;;;;;;;5.88;4.78;;;;;;;31.01;34.36;100082.75;5023523;28;20046;-57
2021/06/17 09:39:14;;;;;;;6.17;4.33;;;;;;;30.98;33.75;100081.31;5014854;28;20064;-63
2021/06/17 09:41:43;;;;;;;17.42;5.50;;;;;;;30.97;34.09;100086.97;5027177;28;20448;-63
2021/06/17 09:44:35;;;;;;;5.70;4.70;;;;;;;31.03;33.65;100083.38;5017136;28;20217;-61
2021/06/17 09:47:07;;;;;;;8.55;5.00;;;;;;;31.04;34.16;100076.84;5015898;28;20521;-56
2021/06/17 09:49:35;;;;;;;6.22;4.43;;;;;;;31.04;34.48;100077.69;5020802;28;20519;-57
2021/06/17 09:52:03;;;;;;;5.95;4.50;;;;;;;31.13;33.70;100067.44;5024911;28;20049;-56
2021/06/17 09:54:31;;;;;;;6.18;4.50;;;;;;;31.14;33.73;100077.31;5020135;28;20553;-59
2021/06/17 09:57:24;;;;;;;5.97;4.40;;;;;;;31.13;34.17;100072.06;5022759;28;23250;-58
2021/06/17 09:59:54;;;;;;;5.00;4.50;;;;;;;31.15;33.58;100067.22;5009584;28;20081;-58
2021/06/17 10:02:25;;;;;;;6.60;4.30;;;;;;;31.19;33.80;100062.97;5018100;28;20847;-58
2021/06/17 10:05:15;;;;;;;6.82;4.50;;;;;;;31.11;33.26;100066.78;5017402;28;20067;-59
2021/06/17 10:07:44;;;;;;;6.00;4.45;;;;;;;31.00;33.53;100068.25;5021424;28;20061;-58
2021/06/17 10:10:13;;;;;;;7.60;4.10;;;;;;;31.07;34.35;100060.03;5020323;28;20123;-58
2021/06/17 10:12:40;;;;;;;8.75;4.50;;;;;;;31.21;33.43;100061.72;5022375;28;20420;-59
2021/06/17 10:15:08;;;;;;;6.68;4.40;;;;;;;31.37;33.31;100060.41;5015603;28;20077;-57
2021/06/17 10:17:35;;;;;;;5.13;4.60;;;;;;;31.48;32.82;100059.75;5018886;28;20103;-61
2021/06/17 10:20:07;;;;;;;5.55;3.80;;;;;;;31.51;32.95;100064.78;5013256;28;20176;-59
2021/06/17 10:22:36;;;;;;;7.40;4.32;;;;;;;31.62;32.86;100066.03;5011270;28;20061;-58
2021/06/17 10:25:08;;;;;;;5.30;4.40;;;;;;;31.59;32.48;100061.81;5010826;28;20045;-60
2021/06/17 10:27:38;;;;;;;5.22;4.00;;;;;;;31.58;33.02;100051.09;5014883;28;20096;-58
2021/06/17 10:30:06;;;;;;;8.23;4.45;;;;;;;31.63;32.79;100052.13;5016159;28;20415;-58
2021/06/17 10:32:37;;;;;;;6.10;4.22;;;;;;;31.63;32.63;100043.06;5016271;28;20041;-61
2021/06/17 10:35:05;;;;;;;5.47;4.97;;;;;;;31.66;32.50;100042.63;5011705;28;20050;-58
2021/06/17 10:37:34;;;;;;;5.82;4.40;;;;;;;31.81;32.92;100043.19;5015804;28;20052;-59
2021/06/17 10:40:15;;;;;;;4.85;4.35;;;;;;;31.95;32.93;100042.09;5009245;28;20056;-60
2021/06/17 10:42:51;;;;;;;5.30;4.32;;;;;;;32.04;32.49;100038.03;5019294;28;20061;-61
2021/06/17 10:45:32;;;;;;;5.28;4.38;;;;;;;32.12;32.95;100036.06;5012471;28;20053;-58
2021/06/17 10:48:01;;;;;;;5.45;4.47;;;;;;;32.22;32.20;100036.47;5022409;28;20104;-59
2021/06/17 10:50:48;;;;;;;6.13;4.13;;;;;;;32.27;32.37;100037.47;5026511;28;20052;-60
2021/06/17 10:53:33;;;;;;;8.00;4.38;;;;;;;32.27;31.87;100037.47;5022316;28;20058;-58
2021/06/17 10:56:07;;;;;;;7.07;4.63;;;;;;;32.19;32.08;100037.75;5023350;28;20053;-58
2021/06/17 10:58:45;;;;;;;5.43;4.50;;;;;;;32.17;32.49;100026.13;5022185;28;20111;-58
2021/06/17 11:01:30;;;;;;;6.57;4.72;;;;;;;32.20;32.39;100025.72;5014795;28;20136;-59
2021/06/17 11:04:20;;;;;;;5.18;4.68;;;;;;;32.22;32.94;100020.88;5017520;28;20995;-60
2021/06/17 11:06:50;;;;;;;8.45;4.88;;;;;;;32.26;32.55;100018.53;5015619;28;20045;-59
2021/06/17 11:09:39;;;;;;;;;;;;;;;32.40;33.14;100018.22;5022861;28;20052;-59
2021/06/17 11:12:28;;;;;;;5.53;4.73;;;;;;;32.56;33.09;100019.56;5012869;28;19925;-58
2021/06/17 11:14:57;;;;;;;6.63;4.60;;;;;;;32.64;32.17;100013.78;4998834;28;20061;-59
2021/06/17 11:17:27;;;;;;;5.88;4.80;;;;;;;32.70;32.10;100023.84;4993009;28;21890;-60
2021/06/17 11:20:14;;;;;;;6.35;4.43;;;;;;;32.80;32.16;100025.25;5001217;28;20111;-58
2021/06/17 11:22:59;;;;;;;10.43;5.07;;;;;;;32.94;32.21;100016.69;5017596;28;20053;-60
2021/06/17 11:25:30;;;;;;;7.60;4.78;;;;;;;33.07;31.82;100013.78;5004985;28;20053;-60
2021/06/17 11:28:02;;;;;;;7.70;5.00;;;;;;;33.17;32.27;100018.78;5011748;28;20058;-58
2021/06/17 11:30:38;;;;;;;6.50;4.60;;;;;;;33.19;30.83;100022.13;5015092;28;20057;-57
2021/06/17 11:33:14;;;;;;;6.85;4.63;;;;;;;33.19;30.70;100011.16;5006074;28;20509;-59
2021/06/17 11:35:57;;;;;;;6.88;4.70;;;;;;;33.17;31.29;100017.94;5015051;28;20693;-62
2021/06/17 11:38:26;;;;;;;6.13;4.70;;;;;;;33.15;31.39;100003.59;4987770;28;20322;-60
2021/06/17 11:40:53;;;;;;;7.77;5.30;;;;;;;33.20;31.15;100003.75;5016521;28;20061;-59